Time;durP1;ratioP1;P1;durP2;ratioP2;P2;SDS_P1;SDS_P2;PMS_P1;PMS_P2;Temp;Humidity;BMP_temperature;BMP_pressure;BME280_temperature;BME280_humidity;BME280_pressure;Samples;Min_cycle;Max_cycle;Signal;HPM_P1;HPM_P2
2023/06/10 00:00:41;;;;;;;2.22;1.75;;;;;;;20.28;72.51;99137.84;5087561;28;20074;-83
2023/06/10 00:03:08;;;;;;;3.47;2.38;;;;;;;20.18;72.00;99099.22;5094718;28;20036;-82
2023/06/10 00:05:35;;;;;;;6.10;3.30;;;;;;;20.33;71.60;99135.72;5094660;28;20032;-84
2023/06/10 00:08:06;;;;;;;4.97;2.60;;;;;;;20.27;70.74;99120.03;5100838;28;20894;-83
2023/06/10 00:10:35;;;;;;;4.95;2.63;;;;;;;20.10;70.66;99123.81;5090329;28;20028;-85
2023/06/10 00:13:03;;;;;;;3.08;1.77;;;;;;;19.97;71.22;99122.84;5090429;28;20047;-86
2023/06/10 00:15:29;;;;;;;3.92;1.95;;;;;;;20.03;71.91;99158.13;5110457;28;20050;-83
2023/06/10 00:17:55;;;;;;;8.43;3.05;;;;;;;19.84;71.49;99118.25;5110172;28;20027;-83
2023/06/10 00:20:23;;;;;;;8.57;2.42;;;;;;;20.03;71.36;99139.41;5111317;28;20119;-81
2023/06/10 00:22:52;;;;;;;2.58;1.42;;;;;;;19.87;72.13;99125.25;5093407;28;20093;-84
2023/06/10 00:25:18;;;;;;;3.83;1.77;;;;;;;19.96;72.87;99154.13;5090512;28;20036;-82
2023/06/10 00:27:43;;;;;;;4.10;2.22;;;;;;;19.88;74.18;99155.53;5094442;28;20035;-82
2023/06/10 00:30:10;;;;;;;5.78;2.25;;;;;;;19.87;74.39;99145.81;5109793;28;20043;-83
2023/06/10 00:32:36;;;;;;;3.47;1.90;;;;;;;19.99;73.96;99143.22;5109430;28;20085;-84
2023/06/10 00:35:06;;;;;;;4.47;3.00;;;;;;;20.07;73.73;99142.72;5110820;28;20511;-83
2023/06/10 00:37:34;;;;;;;2.42;1.33;;;;;;;20.10;73.63;99155.06;5111170;28;20112;-83
2023/06/10 00:40:00;;;;;;;3.08;1.73;;;;;;;20.09;72.38;99162.22;5110387;28;20142;-83
2023/06/10 00:42:25;;;;;;;4.00;1.83;;;;;;;19.73;71.91;99120.72;5108691;28;20119;-83
2023/06/10 00:44:51;;;;;;;3.22;1.63;;;;;;;19.79;71.83;99135.56;5090273;28;20063;-83
2023/06/10 00:47:17;;;;;;;3.08;2.33;;;;;;;19.68;73.54;99179.88;5090593;28;20062;-83
2023/06/10 00:49:44;;;;;;;2.63;1.40;;;;;;;19.24;73.26;99103.16;5071780;28;20465;-83
2023/06/10 00:52:10;;;;;;;2.88;1.75;;;;;;;19.70;72.86;99152.16;5091339;28;20027;-83
2023/06/10 00:54:37;;;;;;;5.40;2.25;;;;;;;19.46;72.69;99105.41;5091296;28;20051;-84
2023/06/10 00:57:04;;;;;;;2.92;2.15;;;;;;;19.45;72.82;99087.66;5090671;28;20055;-83
2023/06/10 00:59:30;;;;;;;3.72;2.10;;;;;;;19.65;72.30;99109.66;5089960;28;20035;-83
2023/06/10 01:01:58;;;;;;;2.72;1.90;;;;;;;19.77;71.91;99146.38;5090450;28;20054;-83
2023/06/10 01:04:24;;;;;;;2.55;2.30;;;;;;;19.70;72.18;99139.63;5091327;28;20058;-84
2023/06/10 01:07:28;;;;;;;2.22;1.33;;;;;;;19.77;72.77;99150.84;5089658;28;20035;-84
2023/06/10 01:10:01;;;;;;;5.50;2.90;;;;;;;19.70;72.39;99142.31;5027310;28;20045;-84
2023/06/10 01:12:38;;;;;;;2.65;1.88;;;;;;;19.78;72.67;99169.47;5027777;28;20041;-84
2023/06/10 01:15:04;;;;;;;2.40;1.50;;;;;;;19.43;72.86;99120.78;5010155;28;20517;-84
2023/06/10 01:17:31;;;;;;;3.70;2.78;;;;;;;19.72;72.99;99156.44;5027534;28;20050;-84
2023/06/10 01:19:57;;;;;;;4.47;3.30;;;;;;;19.47;73.30;99151.75;5027070;28;20041;-86
2023/06/10 01:22:24;;;;;;;3.28;2.58;;;;;;;19.44;73.82;99130.53;5010931;28;20446;-84
2023/06/10 01:24:50;;;;;;;4.22;1.92;;;;;;;19.63;73.15;99157.91;5027330;28;20076;-84
2023/06/10 01:27:21;;;;;;;3.30;2.10;;;;;;;19.71;73.06;99165.44;5027587;28;20184;-83
2023/06/10 01:29:54;;;;;;;3.92;2.55;;;;;;;19.54;73.35;99161.13;5027029;28;20571;-85
2023/06/10 01:32:31;;;;;;;4.32;2.25;;;;;;;19.43;73.20;99135.03;5009845;28;20394;-83
2023/06/10 01:34:59;;;;;;;2.80;1.55;;;;;;;19.32;72.89;99143.69;5027044;28;20173;-85
2023/06/10 01:37:26;;;;;;;4.40;2.25;;;;;;;19.51;72.14;99174.69;5027838;28;20040;-83
2023/06/10 01:39:54;;;;;;;3.08;2.25;;;;;;;19.08;71.55;99131.78;5010842;28;20428;-84
2023/06/10 01:42:21;;;;;;;1.25;1.15;;;;;;;18.93;71.39;99157.59;5026784;28;20037;-84
2023/06/10 01:44:47;;;;;;;4.85;2.50;;;;;;;18.52;72.24;99128.72;5027199;28;20041;-84
2023/06/10 01:47:12;;;;;;;2.42;1.67;;;;;;;18.58;72.37;99144.41;5072350;28;20040;-84
2023/06/10 01:49:38;;;;;;;3.25;2.30;;;;;;;18.85;72.43;99182.06;5091111;28;20028;-84
2023/06/10 01:52:04;;;;;;;3.53;2.10;;;;;;;18.81;72.60;99177.81;5107833;28;20042;-83
2023/06/10 01:54:29;;;;;;;3.50;2.33;;;;;;;18.70;72.46;99149.03;5103314;28;20069;-84
2023/06/10 01:56:55;;;;;;;3.10;2.08;;;;;;;18.75;72.29;99149.66;5089436;28;20503;-83
2023/06/10 01:59:20;;;;;;;2.60;1.98;;;;;;;19.01;73.34;99187.41;5096808;28;20032;-83
2023/06/10 02:01:47;;;;;;;3.88;2.13;;;;;;;18.92;73.76;99193.25;5109393;28;20034;-84
2023/06/10 02:04:12;;;;;;;9.60;2.28;;;;;;;18.90;74.03;99197.84;5110270;28;20030;-82
2023/06/10 02:06:38;;;;;;;5.30;2.55;;;;;;;18.53;75.01;99154.50;5109910;28;20027;-83
2023/06/10 02:09:03;;;;;;;5.05;2.22;;;;;;;18.40;76.20;99159.66;5107940;28;20061;-84
2023/06/10 02:11:29;;;;;;;2.55;1.85;;;;;;;18.49;76.31;99175.19;5092744;28;20491;-83
2023/06/10 02:13:55;;;;;;;2.83;2.03;;;;;;;18.48;75.94;99157.41;5088953;28;20032;-83
2023/06/10 02:16:21;;;;;;;3.55;2.70;;;;;;;18.65;75.30;99158.28;5089459;28;20032;-84
2023/06/10 02:18:48;;;;;;;2.33;1.55;;;;;;;18.61;75.10;99165.59;5089467;28;20178;-85
2023/06/10 02:21:14;;;;;;;3.92;2.28;;;;;;;18.55;74.93;99144.56;5090813;28;20020;-85
2023/06/10 02:23:40;;;;;;;2.75;2.10;;;;;;;18.81;75.13;99191.19;5097739;28;20054;-85
2023/06/10 02:26:05;;;;;;;2.33;1.52;;;;;;;18.69;74.98;99162.50;5109858;28;20031;-85
2023/06/10 02:28:31;;;;;;;4.85;2.65;;;;;;;18.51;75.02;99151.91;5109423;28;20479;-84
2023/06/10 02:30:56;;;;;;;3.50;2.35;;;;;;;18.68;75.18;99166.13;5107768;28;20048;-85
2023/06/10 02:33:23;;;;;;;4.13;2.28;;;;;;;18.76;75.14;99175.41;5101815;28;20032;-84
2023/06/10 02:35:48;;;;;;;7.28;2.83;;;;;;;18.62;74.87;99159.31;5101717;28;20428;-84
2023/06/10 02:38:14;;;;;;;3.00;1.95;;;;;;;18.64;74.56;99144.06;5091257;28;20114;-84
2023/06/10 02:40:39;;;;;;;4.07;2.58;;;;;;;18.78;75.13;99180.66;5107050;28;20082;-84
2023/06/10 02:43:05;;;;;;;2.03;1.55;;;;;;;18.48;75.08;99129.88;5107335;28;20134;-84
2023/06/10 02:45:30;;;;;;;3.78;2.50;;;;;;;18.61;74.23;99147.78;5111441;28;20023;-84
2023/06/10 02:47:56;;;;;;;3.78;2.95;;;;;;;18.60;74.59;99151.38;5113653;28;20023;-84
2023/06/10 02:50:21;;;;;;;5.38;2.63;;;;;;;18.42;74.09;99155.94;5094493;28;20031;-85
2023/06/10 02:52:47;;;;;;;2.80;2.10;;;;;;;18.28;74.98;99179.88;5112634;28;20023;-84
2023/06/10 02:55:12;;;;;;;5.57;2.70;;;;;;;18.31;75.24;99168.19;5106071;28;20028;-84
2023/06/10 02:57:38;;;;;;;5.03;2.13;;;;;;;18.42;75.47;99195.16;5092070;28;20059;-84
2023/06/10 03:00:10;;;;;;;5.32;2.00;;;;;;;18.19;75.60;99151.88;5093059;28;20539;-85
2023/06/10 03:02:38;;;;;;;5.03;2.83;;;;;;;18.11;75.65;99139.94;5099945;28;20031;-84
2023/06/10 03:05:05;;;;;;;4.00;2.40;;;;;;;18.31;75.74;99169.03;5111730;28;20930;-84
2023/06/10 03:07:32;;;;;;;3.45;1.70;;;;;;;18.34;75.86;99155.53;5112451;28;20059;-84
2023/06/10 03:09:57;;;;;;;3.25;2.25;;;;;;;18.27;76.58;99153.28;5112641;28;20031;-84
2023/06/10 03:12:23;;;;;;;4.70;2.50;;;;;;;18.18;76.52;99133.28;5112524;28;20432;-85
2023/06/10 03:14:49;;;;;;;2.85;2.28;;;;;;;18.65;76.36;99201.88;5112282;28;20468;-84
2023/06/10 03:17:15;;;;;;;2.92;2.00;;;;;;;18.34;77.02;99171.53;5110519;28;20028;-85
2023/06/10 03:19:40;;;;;;;3.03;1.75;;;;;;;18.55;77.82;99212.22;5112836;28;20027;-85
2023/06/10 03:22:10;;;;;;;4.50;2.30;;;;;;;18.58;77.44;99182.69;5112463;28;20066;-84
2023/06/10 03:24:39;;;;;;;2.53;1.55;;;;;;;18.75;76.99;99196.88;5112214;28;20031;-83
2023/06/10 03:27:08;;;;;;;6.75;3.42;;;;;;;18.96;74.21;99184.97;5110255;28;20043;-83
2023/06/10 03:29:34;;;;;;;4.20;2.22;;;;;;;18.96;74.50;99181.47;5112369;28;20032;-82
2023/06/10 03:32:01;;;;;;;7.00;2.28;;;;;;;18.98;74.00;99173.34;5111600;28;20042;-82
2023/06/10 03:34:27;;;;;;;4.22;2.35;;;;;;;18.81;74.03;99153.78;5112529;28;20038;-83
2023/06/10 03:36:52;;;;;;;2.15;1.70;;;;;;;19.13;73.69;99189.34;5112105;28;20027;-86
2023/06/10 03:39:18;;;;;;;5.53;2.58;;;;;;;19.25;73.98;99198.47;5102997;28;20171;-84
2023/06/10 03:41:43;;;;;;;5.05;1.98;;;;;;;19.25;74.32;99192.28;5091853;28;20496;-83
2023/06/10 03:44:09;;;;;;;7.68;4.07;;;;;;;19.28;73.75;99176.06;5091345;28;20032;-84
2023/06/10 03:46:34;;;;;;;2.75;2.05;;;;;;;19.22;72.52;99171.06;5091739;28;20032;-84
2023/06/10 03:49:03;;;;;;;1.85;1.42;;;;;;;19.17;71.16;99182.03;5091443;28;20032;-84
2023/06/10 03:51:29;;;;;;;8.50;2.28;;;;;;;19.02;72.41;99150.84;5096912;27;20031;-85
2023/06/10 03:53:55;;;;;;;2.42;2.17;;;;;;;19.10;73.64;99141.41;5110182;28;20028;-84
2023/06/10 03:56:20;;;;;;;4.63;1.88;;;;;;;19.10;73.33;99149.44;5096930;28;20391;-84
2023/06/10 03:58:46;;;;;;;4.95;2.67;;;;;;;19.28;74.15;99176.91;5089669;28;20024;-84
2023/06/10 04:01:13;;;;;;;3.38;2.28;;;;;;;19.01;75.48;99143.78;5091657;28;20020;-82
2023/06/10 04:03:39;;;;;;;4.38;2.42;;;;;;;19.20;74.93;99157.78;5090401;28;20032;-86
2023/06/10 04:06:05;;;;;;;5.20;3.05;;;;;;;19.25;74.50;99195.81;5089864;28;20110;-83
2023/06/10 04:08:32;;;;;;;2.90;1.48;;;;;;;19.34;73.01;99186.38;5090164;28;20616;-83
2023/06/10 04:10:58;;;;;;;6.80;2.78;;;;;;;19.54;71.54;99171.81;5092247;28;20028;-83
2023/06/10 04:13:23;;;;;;;2.63;1.75;;;;;;;19.73;71.12;99192.97;5094569;28;20554;-82
2023/06/10 04:15:49;;;;;;;4.10;2.00;;;;;;;19.43;71.17;99151.06;5102938;28;20031;-82
2023/06/10 04:18:14;;;;;;;2.33;1.83;;;;;;;19.74;70.94;99185.78;5110906;28;20020;-83
2023/06/10 04:20:40;;;;;;;2.58;1.48;;;;;;;19.89;71.04;99208.13;5110191;28;20493;-83
2023/06/10 04:23:06;;;;;;;2.72;2.03;;;;;;;19.83;71.14;99175.44;5108478;28;20032;-82
2023/06/10 04:25:31;;;;;;;1.52;1.08;;;;;;;19.90;72.11;99200.00;5109662;28;20028;-82
2023/06/10 04:27:57;;;;;;;2.67;2.13;;;;;;;19.72;73.37;99166.31;5095520;28;20024;-83
2023/06/10 04:30:22;;;;;;;5.68;2.90;;;;;;;19.65;73.81;99157.81;5071609;28;20152;-83
2023/06/10 04:32:49;;;;;;;2.78;1.75;;;;;;;20.02;73.87;99201.91;5089677;28;20429;-85
2023/06/10 04:35:15;;;;;;;4.18;2.20;;;;;;;19.97;73.46;99163.00;5090771;28;20043;-83
2023/06/10 04:37:41;;;;;;;3.47;2.45;;;;;;;19.63;74.01;99132.94;5089281;28;20485;-83
2023/06/10 04:40:08;;;;;;;7.28;3.35;;;;;;;20.04;73.55;99167.03;5089871;28;20093;-83
2023/06/10 04:42:34;;;;;;;5.35;2.20;;;;;;;20.12;74.12;99178.09;5089054;28;20047;-83
2023/06/10 04:44:59;;;;;;;4.07;2.15;;;;;;;19.92;74.76;99141.88;5090889;28;20489;-82
2023/06/10 04:47:26;;;;;;;3.25;2.70;;;;;;;20.21;74.50;99168.63;5089959;28;20058;-83
2023/06/10 04:49:52;;;;;;;7.88;3.50;;;;;;;20.49;72.96;99174.91;5090188;28;20059;-83
2023/06/10 04:52:17;;;;;;;3.60;2.90;;;;;;;20.29;73.16;99144.91;5089758;28;20113;-84
2023/06/10 04:54:43;;;;;;;4.63;2.78;;;;;;;20.47;74.21;99168.81;5091736;28;20126;-83
2023/06/10 04:57:09;;;;;;;3.17;2.38;;;;;;;20.81;73.94;99212.22;5090447;28;20039;-83
2023/06/10 04:59:37;;;;;;;5.55;2.78;;;;;;;20.53;73.31;99158.53;5094413;28;20102;-84
2023/06/10 05:02:04;;;;;;;5.18;1.90;;;;;;;20.12;72.85;99134.41;5092167;28;20035;-83
2023/06/10 05:04:30;;;;;;;10.77;2.75;;;;;;;20.51;71.44;99164.94;5102658;28;20024;-84
2023/06/10 05:06:55;;;;;;;4.15;2.80;;;;;;;20.79;71.31;99193.53;5090045;28;20490;-83
2023/06/10 05:09:21;;;;;;;3.25;2.78;;;;;;;20.70;69.80;99143.22;5090158;28;20036;-83
2023/06/10 05:11:46;;;;;;;2.70;1.77;;;;;;;21.16;68.50;99193.75;5090260;28;20024;-83
2023/06/10 05:14:12;;;;;;;4.95;2.63;;;;;;;20.67;68.84;99159.50;5089346;28;20032;-83
2023/06/10 05:16:38;;;;;;;2.28;1.83;;;;;;;21.09;67.38;99157.63;5091217;28;20071;-83
2023/06/10 05:19:04;;;;;;;4.15;2.25;;;;;;;21.09;66.92;99201.38;5090241;28;20031;-84
2023/06/10 05:21:29;;;;;;;7.70;2.85;;;;;;;21.03;67.47;99183.00;5110580;28;20036;-83
2023/06/10 05:23:55;;;;;;;3.10;2.22;;;;;;;21.15;68.25;99157.22;5109759;28;20462;-84
2023/06/10 05:26:21;;;;;;;4.60;2.17;;;;;;;21.54;66.53;99192.19;5095263;28;20032;-85
2023/06/10 05:28:47;;;;;;;4.07;2.22;;;;;;;21.54;65.99;99160.84;5105138;28;20032;-84
2023/06/10 05:31:13;;;;;;;5.53;3.20;;;;;;;21.69;66.50;99196.50;5109729;28;20084;-84
2023/06/10 05:33:39;;;;;;;3.92;2.03;;;;;;;21.69;66.09;99145.50;5108988;28;20146;-85
2023/06/10 05:36:05;;;;;;;5.18;2.35;;;;;;;22.14;65.66;99188.88;5090750;28;20043;-84
2023/06/10 05:38:31;;;;;;;4.28;2.83;;;;;;;22.25;63.80;99158.56;5092287;28;20047;-84
2023/06/10 05:40:58;;;;;;;3.47;1.75;;;;;;;22.41;63.86;99187.03;5109620;28;20043;-86
2023/06/10 05:43:25;;;;;;;3.28;1.83;;;;;;;22.28;62.33;99139.53;5109420;28;20032;-83
2023/06/10 05:45:50;;;;;;;4.05;2.47;;;;;;;22.39;63.34;99180.94;5108475;28;20035;-84
2023/06/10 05:48:16;;;;;;;3.03;2.17;;;;;;;22.26;63.70;99167.47;5109172;28;20031;-83
2023/06/10 05:50:44;;;;;;;3.85;1.90;;;;;;;22.39;63.09;99181.78;5109977;28;20027;-85
2023/06/10 05:53:14;;;;;;;2.83;2.10;;;;;;;22.52;62.84;99157.56;5092900;28;20119;-84
2023/06/10 05:55:45;;;;;;;4.07;2.58;;;;;;;22.33;61.80;99158.88;5092756;28;20031;-85
2023/06/10 05:58:12;;;;;;;4.63;3.03;;;;;;;22.74;60.25;99204.38;5117783;28;20169;-83
2023/06/10 06:00:41;;;;;;;5.03;2.58;;;;;;;22.70;60.78;99176.84;5109662;28;20405;-87
2023/06/10 06:03:10;;;;;;;3.35;2.65;;;;;;;22.62;61.72;99173.88;5109164;28;20474;-87
2023/06/10 06:05:37;;;;;;;7.05;2.72;;;;;;;22.78;60.50;99190.59;5109577;28;20118;-86
2023/06/10 06:08:04;;;;;;;3.58;2.38;;;;;;;22.69;63.67;99181.38;5109204;28;20028;-86
2023/06/10 06:10:31;;;;;;;5.82;3.05;;;;;;;22.48;62.56;99165.00;5092886;28;20489;-86
2023/06/10 06:12:57;;;;;;;5.20;3.28;;;;;;;23.03;62.44;99204.91;5091056;28;20035;-85
2023/06/10 06:15:22;;;;;;;9.68;4.20;;;;;;;23.60;61.79;99214.09;5093709;28;20024;-86
2023/06/10 06:17:48;;;;;;;6.32;2.83;;;;;;;23.82;61.08;99204.34;5098422;28;20051;-85
2023/06/10 06:20:13;;;;;;;3.67;2.35;;;;;;;23.47;59.95;99179.19;5096212;28;20095;-85
2023/06/10 06:22:39;;;;;;;8.70;4.07;;;;;;;23.14;58.91;99196.06;5095016;28;20031;-86
2023/06/10 06:25:05;;;;;;;3.13;1.98;;;;;;;23.09;62.13;99166.81;5096303;28;20116;-84
2023/06/10 06:27:31;;;;;;;3.33;2.13;;;;;;;23.41;61.58;99217.34;5097389;28;21137;-85
2023/06/10 06:29:56;;;;;;;3.03;1.98;;;;;;;23.72;60.44;99194.31;5097930;28;20024;-85
2023/06/10 06:32:22;;;;;;;5.97;2.92;;;;;;;23.71;59.21;99192.59;5097414;28;20550;-84
2023/06/10 06:34:53;;;;;;;2.78;1.95;;;;;;;23.91;59.70;99201.84;5108077;28;20028;-85
2023/06/10 06:37:23;;;;;;;2.55;1.73;;;;;;;24.24;59.19;99189.38;5110140;28;20155;-84
2023/06/10 06:39:51;;;;;;;4.47;2.03;;;;;;;24.63;58.06;99192.56;5097513;28;20052;-85
2023/06/10 06:42:16;;;;;;;3.88;2.63;;;;;;;24.63;55.48;99180.94;5109220;28;20032;-86
2023/06/10 06:44:42;;;;;;;4.63;2.42;;;;;;;24.33;57.73;99209.34;5081736;28;20027;-85
2023/06/10 06:47:08;;;;;;;3.95;2.35;;;;;;;24.56;57.83;99193.16;5083865;28;20051;-86
2023/06/10 06:49:33;;;;;;;7.35;2.92;;;;;;;24.22;57.80;99147.38;5105813;28;20524;-84
2023/06/10 06:51:59;;;;;;;3.08;2.08;;;;;;;24.21;57.35;99148.38;5100186;28;20028;-82
2023/06/10 06:54:24;;;;;;;3.70;2.28;;;;;;;24.76;55.81;99181.66;5093995;28;20032;-84
2023/06/10 06:56:50;;;;;;;4.22;2.63;;;;;;;24.94;54.80;99178.41;5107796;28;20031;-87
2023/06/10 06:59:18;;;;;;;2.35;1.60;;;;;;;25.40;55.28;99198.03;5102575;27;20119;-87
2023/06/10 07:01:45;;;;;;;3.58;2.67;;;;;;;25.11;55.05;99185.94;5100136;27;20044;-86
2023/06/10 07:04:11;;;;;;;3.08;2.00;;;;;;;25.09;55.39;99147.44;5105032;27;20489;-84
2023/06/10 07:06:37;;;;;;;3.63;2.33;;;;;;;25.29;54.99;99167.38;5103886;28;20081;-85
2023/06/10 07:09:03;;;;;;;2.78;1.92;;;;;;;24.79;53.56;99150.84;5095425;27;20034;-86
2023/06/10 07:11:29;;;;;;;3.03;2.03;;;;;;;25.22;53.62;99166.16;5094239;27;20036;-86
2023/06/10 07:13:55;;;;;;;5.55;3.03;;;;;;;25.28;52.50;99156.69;5109653;27;20036;-85
2023/06/10 07:16:21;;;;;;;3.17;1.92;;;;;;;25.35;53.28;99157.91;5087573;28;20058;-84
2023/06/10 07:18:46;;;;;;;3.90;2.38;;;;;;;24.96;54.53;99130.56;5091879;28;20036;-85
2023/06/10 07:21:12;;;;;;;3.25;2.33;;;;;;;25.38;55.11;99144.16;5105531;28;20042;-84
2023/06/10 07:23:42;;;;;;;5.03;3.05;;;;;;;25.43;53.68;99160.81;5101471;28;20102;-84
2023/06/10 07:26:10;;;;;;;2.42;2.05;;;;;;;25.79;52.63;99128.06;5097373;28;20089;-87
2023/06/10 07:28:36;;;;;;;4.28;2.53;;;;;;;26.90;49.49;99150.66;5097244;28;20030;-83
2023/06/10 07:31:02;;;;;;;3.28;2.08;;;;;;;27.09;50.71;99123.59;5104121;28;20458;-85
2023/06/10 07:33:28;;;;;;;4.43;3.70;;;;;;;27.35;50.48;99150.13;5097789;28;20036;-84
2023/06/10 07:35:53;;;;;;;3.20;2.30;;;;;;;27.37;49.00;99126.47;5080439;28;20039;-84
2023/06/10 07:38:19;;;;;;;3.30;2.45;;;;;;;27.70;47.76;99118.84;5077219;28;20051;-84
2023/06/10 07:40:45;;;;;;;2.80;2.47;;;;;;;27.68;47.63;99158.78;5081477;28;20047;-84
2023/06/10 07:43:10;;;;;;;3.17;2.15;;;;;;;27.48;48.26;99142.56;5093391;27;20035;-85
2023/06/10 07:45:35;;;;;;;4.40;2.00;;;;;;;27.52;50.14;99110.63;5097599;28;20170;-86
2023/06/10 07:48:01;;;;;;;2.67;1.85;;;;;;;28.43;46.94;99109.16;5096212;27;20526;-88
2023/06/10 07:50:26;;;;;;;3.08;1.90;;;;;;;28.71;46.67;99134.41;5093627;28;20024;-84
2023/06/10 07:52:52;;;;;;;6.38;2.80;;;;;;;28.93;43.13;99138.53;5094933;28;20056;-87
2023/06/10 07:55:17;;;;;;;5.15;3.22;;;;;;;28.37;45.74;99110.63;5105771;28;20039;-84
2023/06/10 07:57:43;;;;;;;3.25;2.22;;;;;;;28.29;46.25;99138.47;5093097;28;20550;-84
2023/06/10 08:00:09;;;;;;;5.75;1.98;;;;;;;28.16;45.45;99141.56;5098950;28;20035;-84
2023/06/10 08:02:34;;;;;;;5.22;2.80;;;;;;;28.34;45.63;99117.19;5094680;28;20084;-84
2023/06/10 08:05:00;;;;;;;5.93;2.40;;;;;;;28.34;45.37;99138.03;5082766;28;20021;-85
2023/06/10 08:07:25;;;;;;;2.20;1.83;;;;;;;27.46;46.88;99124.75;5105603;28;20039;-84
2023/06/10 08:09:51;;;;;;;3.92;1.83;;;;;;;27.20;47.79;99151.53;5099691;28;20474;-86
2023/06/10 08:12:16;;;;;;;4.30;2.00;;;;;;;27.14;47.30;99123.16;5079837;28;20036;-85
2023/06/10 08:14:42;;;;;;;1.83;1.45;;;;;;;27.19;46.95;99128.16;5095781;28;20122;-85
2023/06/10 08:17:07;;;;;;;3.58;2.45;;;;;;;27.12;47.54;99141.41;5087890;28;20505;-85
2023/06/10 08:19:33;;;;;;;4.38;2.38;;;;;;;26.80;50.26;99112.75;5074099;28;20039;-85
2023/06/10 08:21:58;;;;;;;5.63;2.42;;;;;;;27.11;47.54;99116.22;5094712;28;20035;-85
2023/06/10 08:24:24;;;;;;;3.35;2.20;;;;;;;27.65;46.07;99108.47;5092014;28;20035;-86
2023/06/10 08:26:50;;;;;;;5.75;2.42;;;;;;;28.64;46.40;99122.47;5094787;28;20557;-84
2023/06/10 08:29:15;;;;;;;4.78;1.67;;;;;;;28.92;43.90;99107.00;5091079;28;20028;-86
2023/06/10 08:31:42;;;;;;;3.45;1.95;;;;;;;28.65;42.86;99151.31;5091046;28;20023;-84
2023/06/10 08:34:08;;;;;;;6.32;2.60;;;;;;;28.78;44.40;99121.97;5095514;28;20467;-85
2023/06/10 08:36:33;;;;;;;5.07;2.15;;;;;;;29.14;42.89;99123.81;5094860;28;20027;-86
2023/06/10 08:38:59;;;;;;;3.53;1.90;;;;;;;29.06;41.16;99114.59;5092471;28;20028;-85
2023/06/10 08:41:28;;;;;;;3.75;1.90;;;;;;;28.57;42.01;99130.34;5095859;28;20023;-85
2023/06/10 08:44:03;;;;;;;2.70;1.90;;;;;;;28.59;43.05;99114.78;5094584;28;20165;-84
2023/06/10 08:46:31;;;;;;;;;;;;;;;28.38;42.46;99140.28;5097204;28;20028;-85
2023/06/10 08:49:02;;;;;;;4.28;2.42;;;;;;;28.92;44.03;99096.13;5090865;28;19914;-85
2023/06/10 08:51:31;;;;;;;3.75;2.17;;;;;;;29.48;40.32;99115.81;5095468;28;20096;-87
2023/06/10 08:54:03;;;;;;;3.80;2.50;;;;;;;29.87;39.72;99109.97;5103863;28;20089;-84
2023/06/10 08:56:35;;;;;;;4.63;2.50;;;;;;;30.12;38.08;99078.31;5080980;27;20039;-85
2023/06/10 08:59:01;;;;;;;4.05;1.70;;;;;;;30.35;37.99;99083.16;5091340;28;20040;-85
2023/06/10 09:01:28;;;;;;;2.45;1.80;;;;;;;30.65;39.33;99113.56;5101809;28;20506;-85
2023/06/10 09:03:54;;;;;;;2.55;1.73;;;;;;;31.06;37.35;99122.66;5090712;28;20059;-85
2023/06/10 09:06:20;;;;;;;1.73;1.33;;;;;;;31.22;34.07;99080.94;5093260;28;20024;-85
2023/06/10 09:08:46;;;;;;;3.05;1.30;;;;;;;31.04;36.60;99104.78;5099582;28;20043;-82
2023/06/10 09:11:12;;;;;;;1.00;0.80;;;;;;;31.24;37.33;99062.56;5118354;28;20031;-82
2023/06/10 09:13:37;;;;;;;3.53;1.42;;;;;;;31.85;33.43;99059.38;5120118;28;20011;-88
2023/06/10 09:16:03;;;;;;;2.92;1.63;;;;;;;31.77;33.81;99078.50;5120884;28;20033;-85
2023/06/10 09:18:29;;;;;;;7.22;2.38;;;;;;;31.83;33.01;99049.69;5119417;28;20020;-87
2023/06/10 09:20:55;;;;;;;1.92;1.45;;;;;;;31.18;29.60;99079.59;5122217;28;20030;-87
2023/06/10 09:23:21;;;;;;;3.72;1.60;;;;;;;30.76;29.95;99079.72;5120946;28;20040;-83
2023/06/10 09:25:56;;;;;;;4.65;1.75;;;;;;;30.87;31.75;99072.06;5135499;28;20058;-84
2023/06/10 09:28:22;;;;;;;3.78;1.90;;;;;;;31.22;31.85;99080.94;5136501;28;20075;-88
2023/06/10 09:30:47;;;;;;;9.65;1.40;;;;;;;31.48;30.27;99093.53;5116318;28;20036;-84
2023/06/10 09:33:18;;;;;;;1.30;0.98;;;;;;;31.37;30.49;99085.69;5126235;28;20020;-86
2023/06/10 09:35:48;;;;;;;2.15;1.52;;;;;;;31.08;29.76;99056.25;5133221;28;20041;-86
2023/06/10 09:38:20;;;;;;;2.17;1.35;;;;;;;30.65;32.09;99042.78;5132523;28;20019;-89
2023/06/10 09:40:54;;;;;;;3.67;2.05;;;;;;;31.11;31.38;99059.53;5117624;28;20048;-84
2023/06/10 09:43:20;;;;;;;2.97;1.40;;;;;;;30.61;31.87;99036.81;5117042;28;20059;-87
2023/06/10 09:45:49;;;;;;;2.70;1.42;;;;;;;30.86;32.01;99051.31;5135518;28;20039;-85
2023/06/10 09:48:15;;;;;;;4.53;2.35;;;;;;;30.67;32.14;99027.97;5105130;28;20206;-85
2023/06/10 09:50:45;;;;;;;5.55;2.13;;;;;;;30.90;32.44;99035.47;5109543;28;20121;-83
2023/06/10 09:53:11;;;;;;;1.58;0.95;;;;;;;31.19;31.62;99051.34;5122276;28;20032;-84
2023/06/10 09:55:41;;;;;;;3.45;2.05;;;;;;;30.70;33.80;99075.78;5095161;28;20066;-84
2023/06/10 09:58:07;;;;;;;3.50;1.48;;;;;;;30.38;33.23;99052.06;5113576;28;20106;-84
2023/06/10 10:00:33;;;;;;;6.22;2.08;;;;;;;30.20;33.80;99061.19;5113168;28;20135;-83
2023/06/10 10:02:59;;;;;;;2.97;1.80;;;;;;;29.88;34.53;99078.22;5095335;28;20560;-85
2023/06/10 10:05:25;;;;;;;5.20;1.55;;;;;;;29.77;33.50;99061.13;5101071;27;20265;-83
2023/06/10 10:07:52;;;;;;;3.75;2.30;;;;;;;29.99;33.81;99048.00;5108146;28;20889;-87
2023/06/10 10:10:19;;;;;;;2.13;1.35;;;;;;;29.95;33.59;99019.44;5112960;28;20028;-85
2023/06/10 10:12:52;;;;;;;6.43;4.00;;;;;;;29.65;33.79;99065.13;5103331;28;20039;-84
2023/06/10 10:15:20;;;;;;;3.95;2.17;;;;;;;29.53;34.26;99014.81;5092425;28;20123;-83
2023/06/10 10:18:04;;;;;;;3.25;1.45;;;;;;;30.07;33.32;99077.09;5092525;28;20486;-84
2023/06/10 10:20:33;;;;;;;3.63;1.52;;;;;;;29.58;34.08;99026.91;5093882;27;20066;-86
2023/06/10 10:23:05;;;;;;;2.58;1.42;;;;;;;29.76;34.98;99047.72;5095262;27;20024;-84
2023/06/10 10:25:42;;;;;;;2.55;2.05;;;;;;;30.16;34.50;99070.69;5093688;28;20048;-85
2023/06/10 10:28:12;;;;;;;1.73;1.13;;;;;;;29.96;35.14;99043.75;5104615;28;20035;-85
2023/06/10 10:30:41;;;;;;;2.42;1.30;;;;;;;30.12;34.26;99040.25;5091049;28;20588;-85
2023/06/10 10:33:15;;;;;;;1.95;1.38;;;;;;;29.64;34.57;99036.25;5095608;28;20027;-84
2023/06/10 10:35:41;;;;;;;4.30;1.48;;;;;;;29.65;35.06;99033.38;5073927;28;20036;-86
2023/06/10 10:38:08;;;;;;;1.73;1.10;;;;;;;30.10;35.43;99047.72;5092646;28;20433;-84
2023/06/10 10:40:34;;;;;;;8.52;1.92;;;;;;;30.08;35.76;99035.31;5096744;28;20036;-85
2023/06/10 10:43:00;;;;;;;5.10;1.30;;;;;;;29.67;37.94;99038.66;5093731;28;20036;-85
2023/06/10 10:45:28;;;;;;;2.85;1.70;;;;;;;29.15;40.22;99020.50;5112625;28;20130;-82
2023/06/10 10:47:57;;;;;;;11.93;1.75;;;;;;;29.74;39.54;99071.47;5112550;28;20023;-82
2023/06/10 10:50:24;;;;;;;3.08;1.67;;;;;;;29.88;39.91;99078.22;5111959;28;20035;-82
2023/06/10 10:52:59;;;;;;;6.88;3.10;;;;;;;29.18;38.97;99043.72;5094040;28;20472;-83
2023/06/10 10:55:26;;;;;;;3.55;1.98;;;;;;;28.74;40.37;99039.16;5093114;28;20047;-82
2023/06/10 10:57:56;;;;;;;3.42;2.05;;;;;;;29.15;39.32;99069.38;5112343;28;20493;-83
2023/06/10 11:00:32;;;;;;;4.88;2.03;;;;;;;29.26;39.63;99058.28;5113308;28;20023;-84
2023/06/10 11:03:08;;;;;;;2.58;1.65;;;;;;;29.10;39.20;99048.13;5112432;28;20027;-83
2023/06/10 11:05:44;;;;;;;15.57;6.60;;;;;;;28.93;39.12;99062.53;5112798;28;20508;-82
2023/06/10 11:08:10;;;;;;;9.50;4.68;;;;;;;29.37;38.72;99029.16;5110221;28;20091;-82
2023/06/10 11:10:41;;;;;;;2.42;2.05;;;;;;;29.33;38.54;99042.19;5073542;28;20463;-82
2023/06/10 11:13:08;;;;;;;6.72;2.08;;;;;;;29.70;37.99;99062.78;5073911;28;20043;-82
2023/06/10 11:15:39;;;;;;;1.88;1.48;;;;;;;30.01;38.79;99043.25;5073703;28;20032;-82
2023/06/10 11:18:24;;;;;;;3.22;1.70;;;;;;;30.27;37.38;99040.44;5092262;28;20028;-83
2023/06/10 11:20:50;;;;;;;1.58;1.08;;;;;;;30.60;37.00;99064.19;5091569;28;20024;-82
2023/06/10 11:23:27;;;;;;;12.80;1.83;;;;;;;30.74;35.74;99062.69;5073829;28;20024;-81
2023/06/10 11:26:11;;;;;;;2.60;1.77;;;;;;;30.62;35.59;99054.00;5099864;27;20178;-80
2023/06/10 11:28:57;;;;;;;2.67;1.35;;;;;;;30.57;34.31;99018.28;5091221;28;20032;-82
2023/06/10 11:31:25;;;;;;;2.25;1.50;;;;;;;30.73;34.54;99044.66;5073152;28;20047;-82
2023/06/10 11:34:01;;;;;;;3.65;2.55;;;;;;;30.51;34.94;99028.81;5090682;28;20359;-82